Time;durP1;ratioP1;P1;durP2;ratioP2;P2;SDS_P1;SDS_P2;PMS_P1;PMS_P2;Temp;Humidity;BMP_temperature;BMP_pressure;BME280_temperature;BME280_humidity;BME280_pressure;Samples;Min_cycle;Max_cycle;Signal;HPM_P1;HPM_P2
2021/11/18 00:06:48;;;;;;;4.05;1.48;;;;;;;;;;21161503;28;20051;-60
2021/11/18 00:16:50;;;;;;;4.35;2.25;;;;;;;;;;21157320;28;20055;-58
2021/11/18 00:26:54;;;;;;;5.07;1.70;;;;;;;;;;21174587;28;20491;-59
2021/11/18 00:36:56;;;;;;;3.15;1.42;;;;;;;;;;21172951;28;20052;-59
2021/11/18 00:46:58;;;;;;;3.55;1.80;;;;;;;;;;21154572;28;20082;-60
2021/11/18 00:57:00;;;;;;;5.82;2.25;;;;;;;;;;21171826;28;20055;-58
2021/11/18 01:07:02;;;;;;;4.50;2.13;;;;;;;;;;21171586;28;20126;-58
2021/11/18 01:17:05;;;;;;;5.72;1.60;;;;;;;;;;21170762;28;20560;-59
2021/11/18 01:27:07;;;;;;;2.97;1.83;;;;;;;;;;21169127;28;20515;-59
2021/11/18 01:37:09;;;;;;;5.85;1.88;;;;;;;;;;21168985;28;20043;-60
2021/11/18 01:47:12;;;;;;;4.70;1.85;;;;;;;;;;21168049;28;20134;-60
2021/11/18 01:57:16;;;;;;;3.28;1.58;;;;;;;;;;21166838;28;20055;-59
2021/11/18 02:07:20;;;;;;;;;;;;;;;;;;21148609;28;20508;-59
2021/11/18 02:17:23;;;;;;;3.35;1.60;;;;;;;;;;21165756;28;19924;-59
2021/11/18 02:27:28;;;;;;;3.25;1.90;;;;;;;;;;21164828;28;20120;-59
2021/11/18 02:37:31;;;;;;;5.50;2.20;;;;;;;;;;21163461;28;20112;-58
2021/11/18 02:47:34;;;;;;;3.25;2.03;;;;;;;;;;21163585;28;20122;-59
2021/11/18 02:57:41;;;;;;;3.90;1.90;;;;;;;;;;21163447;28;20043;-61
2021/11/18 03:07:51;;;;;;;3.75;1.90;;;;;;;;;;21163019;28;20048;-60
2021/11/18 03:18:00;;;;;;;3.63;2.28;;;;;;;;;;21163045;28;20052;-60
2021/11/18 03:28:05;;;;;;;5.05;2.20;;;;;;;;;;21161416;28;20044;-59
2021/11/18 03:38:11;;;;;;;3.13;2.03;;;;;;;;;;21161737;28;20419;-60
2021/11/18 03:48:19;;;;;;;3.42;2.10;;;;;;;;;;21173821;28;20476;-60
2021/11/18 03:58:24;;;;;;;3.17;2.08;;;;;;;;;;21176854;28;20048;-59
2021/11/18 04:08:27;;;;;;;5.63;2.03;;;;;;;;;;21175754;28;20050;-58
2021/11/18 04:18:30;;;;;;;3.88;2.38;;;;;;;;;;21176074;28;20052;-59
2021/11/18 04:28:36;;;;;;;3.67;2.10;;;;;;;;;;21173999;28;20047;-59
2021/11/18 04:38:40;;;;;;;5.53;3.13;;;;;;;;;;21173457;28;20051;-58
2021/11/18 04:48:45;;;;;;;3.67;2.20;;;;;;;;;;21173703;28;20078;-58
2021/11/18 04:58:48;;;;;;;4.93;2.40;;;;;;;;;;21170641;28;20047;-58
2021/11/18 05:08:51;;;;;;;4.57;2.47;;;;;;;;;;21171371;28;20495;-57
2021/11/18 05:18:54;;;;;;;4.70;2.13;;;;;;;;;;21170483;28;20098;-58
2021/11/18 05:28:57;;;;;;;3.85;2.35;;;;;;;;;;21168766;28;20050;-58
2021/11/18 05:38:59;;;;;;;4.28;2.42;;;;;;;;;;21168602;28;20415;-59
2021/11/18 05:49:01;;;;;;;5.22;2.80;;;;;;;;;;21167727;28;20537;-58
2021/11/18 05:59:03;;;;;;;7.00;2.90;;;;;;;;;;21167196;28;20048;-59
2021/11/18 06:09:07;;;;;;;6.75;2.60;;;;;;;;;;21165998;28;20098;-58
2021/11/18 06:19:09;;;;;;;5.03;3.10;;;;;;;;;;21165261;28;20134;-58
2021/11/18 06:29:12;;;;;;;3.97;2.42;;;;;;;;;;21164462;28;20349;-58
2021/11/18 06:39:15;;;;;;;5.82;2.47;;;;;;;;;;21164025;28;20051;-58
2021/11/18 06:49:18;;;;;;;4.25;2.67;;;;;;;;;;21163933;28;20055;-58
2021/11/18 06:59:21;;;;;;;4.57;2.80;;;;;;;;;;21162689;28;20047;-59
2021/11/18 07:09:24;;;;;;;5.40;2.95;;;;;;;;;;21163760;28;20047;-60
2021/11/18 07:19:25;;;;;;;10.85;3.08;;;;;;;;;;21168967;28;20063;-59
2021/11/18 07:29:31;;;;;;;5.35;2.88;;;;;;;;;;21178438;28;20457;-58
2021/11/18 07:39:34;;;;;;;7.95;3.67;;;;;;;;;;21177227;28;20087;-59
2021/11/18 07:49:36;;;;;;;12.18;6.97;;;;;;;;;;21177789;28;20387;-58
2021/11/18 07:59:39;;;;;;;6.85;3.50;;;;;;;;;;21176266;28;20083;-59
2021/11/18 08:09:42;;;;;;;5.63;3.25;;;;;;;;;;21174898;28;20488;-59
2021/11/18 08:19:44;;;;;;;9.48;3.17;;;;;;;;;;21155931;28;20054;-58
2021/11/18 08:29:47;;;;;;;6.32;3.30;;;;;;;;;;21173217;28;20052;-58
2021/11/18 08:39:49;;;;;;;6.57;3.55;;;;;;;;;;21172898;28;20052;-58
2021/11/18 08:50:01;;;;;;;6.75;3.10;;;;;;;;;;21172341;28;20409;-58
2021/11/18 09:00:29;;;;;;;5.55;3.10;;;;;;;;;;21171673;28;20531;-59
2021/11/18 09:10:51;;;;;;;7.32;3.72;;;;;;;;;;21171662;28;20411;-59
2021/11/18 09:21:01;;;;;;;8.98;3.75;;;;;;;;;;21170106;28;20188;-59
2021/11/18 09:31:17;;;;;;;5.78;3.22;;;;;;;;;;21169056;28;20146;-59
2021/11/18 09:41:39;;;;;;;6.32;3.33;;;;;;;;;;21167287;28;20105;-59
2021/11/18 09:52:11;;;;;;;4.03;2.25;;;;;;;;;;21165764;28;20052;-63
2021/11/18 10:02:42;;;;;;;7.80;3.20;;;;;;;;;;21247604;27;20084;-62
2021/11/18 10:12:59;;;;;;;5.00;3.45;;;;;;;;;;21250081;27;20082;-61
2021/11/18 10:23:20;;;;;;;8.37;3.57;;;;;;;;;;21249919;27;20050;-62
2021/11/18 10:33:29;;;;;;;4.97;2.85;;;;;;;;;;21249021;27;20495;-60
2021/11/18 10:43:38;;;;;;;8.48;2.72;;;;;;;;;;21247967;27;20043;-61
2021/11/18 10:53:44;;;;;;;7.85;3.33;;;;;;;;;;21246804;27;20055;-60
2021/11/18 11:03:46;;;;;;;9.38;3.47;;;;;;;;;;21247397;27;20043;-55
2021/11/18 11:14:07;;;;;;;10.32;4.20;;;;;;;;;;21126385;28;20071;-55
2021/11/18 11:24:30;;;;;;;8.65;4.18;;;;;;;;;;21076880;28;20044;-56
2021/11/18 11:34:37;;;;;;;11.02;4.00;;;;;;;;;;21090596;28;20048;-55
2021/11/18 11:44:58;;;;;;;10.95;5.00;;;;;;;;;;21074840;28;20087;-61
2021/11/18 11:55:09;;;;;;;7.88;3.40;;;;;;;;;;21075570;28;20044;-55
2021/11/18 12:05:35;;;;;;;11.95;4.72;;;;;;;;;;21080374;28;20048;-54
2021/11/18 12:15:45;;;;;;;9.73;4.22;;;;;;;;;;21090885;28;20055;-56
2021/11/18 12:25:49;;;;;;;10.15;4.80;;;;;;;;;;21089353;28;20059;-57
2021/11/18 12:36:07;;;;;;;9.05;4.55;;;;;;;;;;21089599;28;20089;-56
2021/11/18 12:46:14;;;;;;;8.77;4.72;;;;;;;;;;21088155;28;20062;-56
2021/11/18 12:56:25;;;;;;;8.63;4.03;;;;;;;;;;21088179;28;20455;-55
2021/11/18 13:06:27;;;;;;;9.53;3.30;;;;;;;;;;21086643;28;20200;-56
2021/11/18 13:16:35;;;;;;;4.60;3.20;;;;;;;;;;21084654;28;20051;-57
2021/11/18 13:26:49;;;;;;;5.50;3.60;;;;;;;;;;21085857;28;20048;-56
2021/11/18 13:37:12;;;;;;;9.27;3.50;;;;;;;;;;21084418;28;20139;-57
2021/11/18 13:47:36;;;;;;;6.93;3.35;;;;;;;;;;21083355;28;20070;-55
2021/11/18 13:57:44;;;;;;;7.47;3.83;;;;;;;;;;21082423;28;20055;-55
2021/11/18 14:07:51;;;;;;;5.18;3.45;;;;;;;;;;21081894;28;20047;-56
2021/11/18 14:18:02;;;;;;;7.78;4.25;;;;;;;;;;21063571;28;20056;-57
2021/11/18 14:28:06;;;;;;;7.15;3.90;;;;;;;;;;21062074;28;20048;-56
2021/11/18 14:38:10;;;;;;;7.20;4.18;;;;;;;;;;21080333;28;20454;-56
2021/11/18 14:48:12;;;;;;;11.07;4.57;;;;;;;;;;21081069;28;20048;-56
2021/11/18 14:58:17;;;;;;;5.25;3.25;;;;;;;;;;21079023;28;20052;-57
2021/11/18 15:08:20;;;;;;;5.63;3.50;;;;;;;;;;21079281;28;20044;-57
2021/11/18 15:18:22;;;;;;;7.75;3.17;;;;;;;;;;21077889;28;20087;-56
2021/11/18 15:28:25;;;;;;;5.68;3.00;;;;;;;;;;21060182;28;20075;-56
2021/11/18 15:38:28;;;;;;;7.80;3.25;;;;;;;;;;21079499;28;20135;-56
2021/11/18 15:48:31;;;;;;;7.70;2.92;;;;;;;;;;21092949;28;20071;-57
2021/11/18 15:58:35;;;;;;;9.60;4.05;;;;;;;;;;21091761;28;20048;-57
2021/11/18 16:08:38;;;;;;;9.38;4.40;;;;;;;;;;21092195;28;20052;-57
2021/11/18 16:18:40;;;;;;;7.47;3.20;;;;;;;;;;21090619;28;20051;-56
2021/11/18 16:28:44;;;;;;;6.38;2.72;;;;;;;;;;21089581;28;20044;-55
2021/11/18 16:38:49;;;;;;;5.35;2.65;;;;;;;;;;21110974;28;20048;-55
2021/11/18 16:48:53;;;;;;;7.90;3.42;;;;;;;;;;21085352;28;20485;-58
2021/11/18 16:58:55;;;;;;;7.15;3.50;;;;;;;;;;21086081;28;20048;-57
2021/11/18 17:08:59;;;;;;;7.25;4.47;;;;;;;;;;21085859;28;20056;-54
2021/11/18 17:19:05;;;;;;;7.00;3.67;;;;;;;;;;21067497;28;20101;-59
2021/11/18 17:29:14;;;;;;;8.70;3.63;;;;;;;;;;21084374;28;20136;-55
2021/11/18 17:39:24;;;;;;;17.05;9.98;;;;;;;;;;21074813;28;20097;-57
2021/11/18 17:49:28;;;;;;;16.45;8.05;;;;;;;;;;21162082;28;20128;-56
2021/11/18 17:59:31;;;;;;;14.30;6.40;;;;;;;;;;21166910;28;20484;-57
2021/11/18 18:09:34;;;;;;;10.82;5.22;;;;;;;;;;21165525;28;20053;-61
2021/11/18 18:19:37;;;;;;;14.07;7.00;;;;;;;;;;21166781;28;20116;-58
2021/11/18 18:29:41;;;;;;;10.88;5.05;;;;;;;;;;21145032;28;20062;-57
2021/11/18 18:39:47;;;;;;;8.90;5.83;;;;;;;;;;21163693;28;20146;-61
2021/11/18 18:49:51;;;;;;;14.00;5.57;;;;;;;;;;21162365;28;20097;-55
2021/11/18 18:59:53;;;;;;;9.85;5.70;;;;;;;;;;21162245;28;20052;-57
2021/11/18 19:09:56;;;;;;;14.70;7.05;;;;;;;;;;21162012;28;20050;-56
2021/11/18 19:20:00;;;;;;;9.55;5.32;;;;;;;;;;21176529;28;20437;-57
2021/11/18 19:40:23;;;;;;;19.48;7.25;;;;;;;;;;21178185;28;20079;-57
2021/11/18 19:50:24;;;;;;;12.05;6.40;;;;;;;;;;21178299;28;20040;-57
2021/11/18 20:00:31;;;;;;;17.52;8.25;;;;;;;;;;21176966;28;20145;-56
2021/11/18 20:10:33;;;;;;;12.90;6.35;;;;;;;;;;21177546;28;20043;-57
2021/11/18 20:20:35;;;;;;;13.88;7.90;;;;;;;;;;21175560;28;20076;-59
2021/11/18 20:30:38;;;;;;;21.15;13.80;;;;;;;;;;21173483;28;20412;-57
2021/11/18 20:40:47;;;;;;;24.73;13.40;;;;;;;;;;21173634;28;20043;-57
2021/11/18 20:50:50;;;;;;;15.80;7.97;;;;;;;;;;21173348;28;20043;-56
2021/11/18 21:00:56;;;;;;;12.50;7.78;;;;;;;;;;21172125;28;20049;-57
2021/11/18 21:11:00;;;;;;;22.42;12.93;;;;;;;;;;21153942;28;20047;-56
2021/11/18 21:21:01;;;;;;;12.43;6.60;;;;;;;;;;21170926;28;20079;-59
2021/11/18 21:31:09;;;;;;;13.82;6.70;;;;;;;;;;21169499;28;20059;-57
2021/11/18 21:41:11;;;;;;;18.25;9.23;;;;;;;;;;21150043;28;20083;-58
2021/11/18 21:51:16;;;;;;;62.15;34.08;;;;;;;;;;21168172;28;20051;-57
2021/11/18 22:01:21;;;;;;;21.77;10.33;;;;;;;;;;21167496;28;20047;-56
2021/11/18 22:11:24;;;;;;;13.32;8.43;;;;;;;;;;21166998;28;20537;-58
2021/11/18 22:21:29;;;;;;;11.70;7.25;;;;;;;;;;21165793;28;20044;-56
2021/11/18 22:31:32;;;;;;;15.30;8.55;;;;;;;;;;21165669;28;20140;-59
2021/11/18 22:41:46;;;;;;;11.82;7.18;;;;;;;;;;21163921;28;20104;-57
2021/11/18 22:51:50;;;;;;;9.75;6.57;;;;;;;;;;21163893;28;20054;-57
2021/11/18 23:01:55;;;;;;;14.30;8.98;;;;;;;;;;21162811;28;20127;-56
2021/11/18 23:11:57;;;;;;;18.60;9.93;;;;;;;;;;21145325;28;20510;-57
2021/11/18 23:22:04;;;;;;;17.38;8.02;;;;;;;;;;21162388;28;20412;-57
2021/11/18 23:32:07;;;;;;;13.07;7.05;;;;;;;;;;21161591;28;20055;-57
2021/11/18 23:42:10;;;;;;;12.93;7.43;;;;;;;;;;21162658;28;20051;-57
2021/11/18 23:52:12;;;;;;;24.45;7.13;;;;;;;;;;21162364;28;20510;-58
